createdAt,value
2018-12-06T00:00:44.645Z,53.28
2018-12-06T00:01:48.920Z,52.43
2018-12-06T00:02:53.030Z,65.50
2018-12-06T00:03:57.944Z,60.10
2018-12-06T00:05:02.080Z,61.37
2018-12-06T00:06:06.327Z,50.40
2018-12-06T00:07:10.455Z,47.48
2018-12-06T00:08:19.307Z,52.17
2018-12-06T00:09:23.620Z,56.65
2018-12-06T00:10:27.823Z,48.78
2018-12-06T00:11:32.136Z,59.27
2018-12-06T00:12:36.300Z,53.23
2018-12-06T00:13:40.525Z,51.90
2018-12-06T00:14:44.600Z,58.42
2018-12-06T00:15:50.208Z,55.75
2018-12-06T00:16:56.460Z,53.90
2018-12-06T00:18:00.636Z,52.55
2018-12-06T00:19:09.643Z,50.10
2018-12-06T00:20:13.853Z,57.58
2018-12-06T00:21:18.093Z,58.48
2018-12-06T00:22:22.192Z,49.23
2018-12-06T00:23:26.404Z,56.70
2018-12-06T00:24:30.625Z,50.95
2018-12-06T00:25:34.975Z,47.73
2018-12-06T00:26:40.376Z,45.73
2018-12-06T00:27:44.536Z,46.45
2018-12-06T00:28:48.710Z,46.05
2018-12-06T00:30:04.020Z,44.67
2018-12-06T00:31:08.369Z,46.00
2018-12-06T00:32:12.440Z,42.55
2018-12-06T00:33:16.689Z,36.30
2018-12-06T00:34:21.684Z,40.30
2018-12-06T00:35:25.792Z,42.90
2018-12-06T00:36:30.076Z,45.43
2018-12-06T00:37:34.325Z,47.60
2018-12-06T00:38:38.378Z,43.20
2018-12-06T00:39:42.454Z,43.05
2018-12-06T00:40:46.606Z,42.55
2018-12-06T00:41:50.717Z,46.68
2018-12-06T00:42:55.224Z,48.63
2018-12-06T00:43:59.572Z,38.70
2018-12-06T00:45:03.691Z,41.23
2018-12-06T00:46:10.061Z,43.17
2018-12-06T00:47:14.228Z,48.08
2018-12-06T00:48:18.933Z,40.52
2018-12-06T00:49:23.108Z,43.23
2018-12-06T00:50:27.180Z,45.20
2018-12-06T00:51:31.360Z,55.15
2018-12-06T00:52:35.445Z,42.75
2018-12-06T00:53:39.568Z,45.25
2018-12-06T00:54:43.645Z,45.85
2018-12-06T00:55:47.785Z,50.83
2018-12-06T00:56:51.963Z,46.05
2018-12-06T00:58:01.592Z,49.42
2018-12-06T00:59:06.380Z,46.42
2018-12-06T01:00:10.797Z,46.70
2018-12-06T01:01:15.065Z,50.23
2018-12-06T01:02:19.352Z,49.45
2018-12-06T01:03:23.454Z,49.23
2018-12-06T01:04:27.559Z,48.48
2018-12-06T01:05:31.665Z,49.18
2018-12-06T01:06:35.811Z,46.83
2018-12-06T01:07:39.980Z,48.68
2018-12-06T01:08:44.119Z,51.15
2018-12-06T01:09:48.374Z,50.30
2018-12-06T01:10:52.542Z,47.65
2018-12-06T01:11:56.755Z,43.58
2018-12-06T01:13:00.794Z,44.67
2018-12-06T01:14:04.916Z,45.52
2018-12-06T01:15:09.060Z,46.00
2018-12-06T01:16:13.252Z,54.48
2018-12-06T01:17:17.404Z,64.27
2018-12-06T01:18:26.209Z,57.62
2018-12-06T01:19:30.347Z,53.73
2018-12-06T01:20:34.427Z,55.92
2018-12-06T01:21:38.628Z,54.00
2018-12-06T01:22:42.892Z,55.55
2018-12-06T01:23:47.100Z,60.30
2018-12-06T01:24:51.175Z,50.92
2018-12-06T01:25:55.296Z,57.40
2018-12-06T01:26:59.562Z,55.67
2018-12-06T01:28:03.720Z,53.60
2018-12-06T01:29:07.813Z,63.50
2018-12-06T01:30:11.924Z,59.88
2018-12-06T01:31:18.348Z,56.00
2018-12-06T01:32:22.633Z,60.15
2018-12-06T01:33:26.784Z,58.70
2018-12-06T01:34:30.947Z,60.83
2018-12-06T01:35:35.078Z,58.35
2018-12-06T01:36:39.219Z,62.55
2018-12-06T01:38:53.158Z,51.85
2018-12-06T01:39:57.478Z,58.90
2018-12-06T01:41:01.676Z,57.43
2018-12-06T01:42:05.836Z,60.92
2018-12-06T01:43:10.076Z,56.60
2018-12-06T01:44:14.353Z,55.03
2018-12-06T01:45:18.532Z,57.55
2018-12-06T01:46:22.624Z,53.48
2018-12-06T01:47:26.719Z,59.23
2018-12-06T01:48:31.100Z,63.02
2018-12-06T01:49:35.221Z,63.68
2018-12-06T01:50:39.366Z,68.20
2018-12-06T01:51:43.696Z,62.20
2018-12-06T01:52:47.964Z,62.23
2018-12-06T01:53:52.013Z,59.20
2018-12-06T01:54:56.144Z,52.58
2018-12-06T01:56:00.259Z,63.35
2018-12-06T01:57:04.404Z,67.95
2018-12-06T01:58:08.484Z,64.75
2018-12-06T01:59:13.364Z,63.13
2018-12-06T02:00:17.724Z,67.70
2018-12-06T02:01:21.887Z,59.10
2018-12-06T02:02:25.915Z,54.45
2018-12-06T02:03:30.115Z,56.80
2018-12-06T02:04:34.195Z,56.00
2018-12-06T02:05:39.256Z,61.55
2018-12-06T02:06:43.494Z,63.20
2018-12-06T02:07:47.624Z,54.00
2018-12-06T02:08:51.755Z,58.98
2018-12-06T02:09:55.877Z,61.05
2018-12-06T02:10:59.984Z,58.45
2018-12-06T02:12:04.227Z,59.33
2018-12-06T02:13:08.498Z,59.23
2018-12-06T02:14:12.604Z,68.07
2018-12-06T02:15:22.064Z,74.12
2018-12-06T02:16:26.201Z,64.58
2018-12-06T02:17:30.264Z,71.72
2018-12-06T02:18:34.390Z,69.22
2018-12-06T02:19:38.832Z,83.33
2018-12-06T02:20:43.230Z,84.83
2018-12-06T02:21:48.218Z,75.37
2018-12-06T02:22:59.045Z,80.07
2018-12-06T02:24:40.552Z,82.47
2018-12-06T02:25:44.684Z,86.05
2018-12-06T02:26:49.485Z,88.95
2018-12-06T02:27:53.725Z,89.30
2018-12-06T02:28:57.812Z,97.95
2018-12-06T02:30:01.969Z,106.63
2018-12-06T02:31:06.084Z,83.30
2018-12-06T02:32:10.185Z,99.45
2018-12-06T02:33:14.224Z,106.17
2018-12-06T02:34:18.410Z,119.55
2018-12-06T02:35:22.524Z,139.97
2018-12-06T02:36:26.649Z,116.12
2018-12-06T02:37:30.746Z,136.52
2018-12-06T02:38:34.819Z,112.95
2018-12-06T02:39:39.048Z,172.10
2018-12-06T02:40:43.172Z,181.57
2018-12-06T02:41:47.432Z,200.87
2018-12-06T02:42:51.581Z,174.15
2018-12-06T02:43:55.804Z,197.07
2018-12-06T02:44:59.977Z,156.10
2018-12-06T02:46:04.193Z,183.22
2018-12-06T02:47:08.417Z,194.35
2018-12-06T02:48:12.506Z,217.22
2018-12-06T02:49:16.782Z,228.52
2018-12-06T02:50:20.966Z,217.65
2018-12-06T02:51:25.317Z,230.35
2018-12-06T02:52:29.550Z,203.88
2018-12-06T02:53:37.548Z,175.55
2018-12-06T02:54:41.689Z,188.80
2018-12-06T02:55:45.836Z,125.82
2018-12-06T02:56:50.061Z,124.18
2018-12-06T02:57:54.208Z,118.95
2018-12-06T03:01:35.228Z,176.40
2018-12-06T03:02:39.496Z,169.57
2018-12-06T03:03:43.576Z,162.88
2018-12-06T03:04:53.039Z,134.15
2018-12-06T03:05:57.181Z,118.10
2018-12-06T03:07:01.368Z,93.40
2018-12-06T03:08:05.569Z,79.05
2018-12-06T03:09:09.702Z,66.60
2018-12-06T03:10:14.203Z,85.77
2018-12-06T03:11:18.412Z,69.67
2018-12-06T03:12:22.588Z,78.90
2018-12-06T03:13:26.718Z,91.00
2018-12-06T03:14:30.795Z,88.58
2018-12-06T03:15:34.981Z,75.42
2018-12-06T03:16:39.176Z,79.55
2018-12-06T03:17:43.224Z,79.60
2018-12-06T03:18:47.320Z,85.62
2018-12-06T03:19:51.473Z,100.38
2018-12-06T03:20:55.642Z,106.30
2018-12-06T03:21:59.803Z,106.03
2018-12-06T03:23:04.008Z,117.10
2018-12-06T03:24:08.236Z,123.47
2018-12-06T03:25:12.346Z,115.12
2018-12-06T03:26:16.456Z,118.87
2018-12-06T03:27:20.545Z,107.50
2018-12-06T03:28:24.639Z,114.30
2018-12-06T03:29:28.885Z,99.87
2018-12-06T03:30:33.025Z,109.45
2018-12-06T03:31:38.097Z,100.22
2018-12-06T03:32:42.228Z,100.15
2018-12-06T03:33:46.333Z,95.05
2018-12-06T03:34:50.422Z,99.52
2018-12-06T03:35:54.556Z,99.70
2018-12-06T03:36:58.832Z,105.60
2018-12-06T03:38:02.920Z,91.55
2018-12-06T03:39:08.941Z,81.87
2018-12-06T03:40:17.005Z,68.97
2018-12-06T03:41:21.156Z,62.98
2018-12-06T03:42:25.940Z,61.23
2018-12-06T03:43:30.116Z,41.10
2018-12-06T03:44:36.586Z,42.62
2018-12-06T03:45:40.700Z,44.23
2018-12-06T03:46:44.923Z,40.00
2018-12-06T03:47:49.184Z,39.70
2018-12-06T03:48:53.448Z,31.23
2018-12-06T03:49:57.619Z,34.20
2018-12-06T03:51:01.772Z,31.82
2018-12-06T03:52:05.964Z,28.50
2018-12-06T03:53:10.154Z,35.15
2018-12-06T03:54:14.404Z,30.72
2018-12-06T03:55:18.687Z,32.03
2018-12-06T03:56:22.888Z,28.52
2018-12-06T03:57:27.068Z,29.75
2018-12-06T03:58:31.169Z,34.13
2018-12-06T03:59:35.231Z,29.42
2018-12-06T04:00:39.428Z,31.48
2018-12-06T04:01:43.496Z,32.38
2018-12-06T04:02:47.992Z,29.52
2018-12-06T04:03:52.156Z,28.60
2018-12-06T04:04:56.237Z,31.50
2018-12-06T04:06:00.376Z,25.25
2018-12-06T04:07:04.536Z,26.65
2018-12-06T04:08:08.749Z,25.62
2018-12-06T04:09:12.880Z,29.95
2018-12-06T04:10:16.947Z,26.40
2018-12-06T04:11:21.081Z,31.75
2018-12-06T04:12:25.277Z,25.23
2018-12-06T04:13:29.480Z,30.82
2018-12-06T04:14:33.652Z,35.83
2018-12-06T04:15:37.824Z,32.83
2018-12-06T04:16:41.985Z,27.90
2018-12-06T04:17:46.350Z,29.32
2018-12-06T04:18:50.518Z,26.90
2018-12-06T04:19:54.747Z,27.35
2018-12-06T04:21:00.773Z,29.35
2018-12-06T04:22:04.877Z,30.97
2018-12-06T04:23:09.756Z,30.92
2018-12-06T04:24:13.866Z,29.57
2018-12-06T04:25:18.092Z,24.75
2018-12-06T04:26:22.202Z,30.43
2018-12-06T04:27:26.433Z,25.80
2018-12-06T04:28:30.622Z,27.52
2018-12-06T04:29:34.833Z,29.07
2018-12-06T04:30:38.933Z,24.02
2018-12-06T04:31:43.047Z,23.77
2018-12-06T04:32:47.134Z,20.82
2018-12-06T04:33:51.231Z,19.48
2018-12-06T04:34:55.347Z,19.98
2018-12-06T04:36:00.800Z,22.65
2018-12-06T04:37:11.285Z,23.80
2018-12-06T04:38:15.453Z,16.87
2018-12-06T04:39:19.484Z,25.90
2018-12-06T04:40:23.540Z,21.62
2018-12-06T04:41:27.565Z,24.37
2018-12-06T04:42:31.659Z,24.47
2018-12-06T04:43:35.854Z,20.30
2018-12-06T04:44:39.978Z,21.05
2018-12-06T04:45:44.204Z,21.57
2018-12-06T04:46:50.183Z,22.13
2018-12-06T04:48:00.835Z,25.65
2018-12-06T04:49:05.195Z,24.45
2018-12-06T04:50:09.478Z,23.62
2018-12-06T04:51:13.621Z,22.48
2018-12-06T04:52:17.843Z,20.92
2018-12-06T04:53:22.065Z,25.05
2018-12-06T04:54:26.124Z,25.72
2018-12-06T04:55:30.475Z,24.40
2018-12-06T04:56:34.682Z,17.17
2018-12-06T04:57:38.851Z,19.20
2018-12-06T04:58:42.988Z,25.55
2018-12-06T04:59:47.215Z,16.15
2018-12-06T05:00:51.388Z,14.23
2018-12-06T05:01:55.636Z,25.23
2018-12-06T05:03:00.795Z,16.32
2018-12-06T05:04:05.045Z,20.17
2018-12-06T05:05:09.180Z,16.15
2018-12-06T05:06:13.468Z,20.85
2018-12-06T05:07:17.767Z,19.37
2018-12-06T05:08:21.855Z,19.07
2018-12-06T05:09:26.000Z,21.82
2018-12-06T05:10:30.037Z,22.73
2018-12-06T05:11:34.082Z,23.90
2018-12-06T05:12:38.189Z,18.27
2018-12-06T05:13:42.305Z,19.75
2018-12-06T05:14:46.422Z,22.60
2018-12-06T05:15:51.016Z,14.25
2018-12-06T05:16:55.409Z,17.25
2018-12-06T05:17:59.431Z,18.50
2018-12-06T05:19:03.443Z,17.47
2018-12-06T05:20:07.668Z,22.35
2018-12-06T05:21:11.773Z,19.32
2018-12-06T05:22:15.775Z,19.95
2018-12-06T05:23:20.007Z,17.87
2018-12-06T05:24:24.445Z,20.45
2018-12-06T05:25:29.884Z,17.52
2018-12-06T05:26:34.998Z,21.80
2018-12-06T05:27:39.270Z,17.15
2018-12-06T05:28:43.360Z,16.25
2018-12-06T05:29:47.577Z,19.83
2018-12-06T05:30:52.311Z,16.77
2018-12-06T05:31:56.415Z,22.15
2018-12-06T05:33:00.511Z,16.00
2018-12-06T05:34:04.616Z,19.35
2018-12-06T05:35:08.844Z,17.73
2018-12-06T05:36:13.000Z,17.07
2018-12-06T05:37:17.242Z,17.10
2018-12-06T05:38:21.358Z,26.25
2018-12-06T05:39:26.535Z,22.67
2018-12-06T05:40:30.727Z,17.55
2018-12-06T05:41:34.938Z,28.67
2018-12-06T05:42:43.199Z,28.32
2018-12-06T05:43:48.519Z,24.50
2018-12-06T05:44:52.600Z,24.00
2018-12-06T05:45:56.812Z,18.50
2018-12-06T05:47:00.988Z,20.45
2018-12-06T05:48:05.386Z,16.45
2018-12-06T05:49:09.680Z,18.57
2018-12-06T05:50:14.036Z,20.92
2018-12-06T05:51:18.653Z,17.73
2018-12-06T05:52:23.019Z,17.02
2018-12-06T05:53:27.443Z,14.47
2018-12-06T05:54:31.610Z,16.00
2018-12-06T05:55:35.785Z,19.37
2018-12-06T05:56:40.011Z,19.35
2018-12-06T05:57:44.305Z,19.70
2018-12-06T05:58:48.623Z,22.05
2018-12-06T05:59:52.988Z,21.48
2018-12-06T06:00:57.265Z,25.40
2018-12-06T06:02:01.361Z,33.83
2018-12-06T06:03:05.647Z,23.67
2018-12-06T06:04:10.784Z,24.65
2018-12-06T06:05:19.970Z,26.93
2018-12-06T06:06:24.165Z,25.80
2018-12-06T06:07:28.526Z,26.73
2018-12-06T06:08:32.807Z,25.17
2018-12-06T06:09:37.061Z,24.92
2018-12-06T06:10:41.403Z,59.13
2018-12-06T06:11:45.665Z,53.55
2018-12-06T06:12:50.685Z,63.15
2018-12-06T06:13:55.687Z,41.77
2018-12-06T06:14:59.831Z,43.25
2018-12-06T06:16:04.067Z,60.78
2018-12-06T06:17:08.253Z,42.95
2018-12-06T06:18:12.573Z,38.65
2018-12-06T06:19:16.793Z,33.65
2018-12-06T06:20:20.965Z,31.62
2018-12-06T06:21:25.281Z,36.48
2018-12-06T06:22:29.631Z,23.70
2018-12-06T06:23:33.939Z,29.00
2018-12-06T06:24:38.250Z,25.52
2018-12-06T06:25:42.413Z,23.42
2018-12-06T06:26:46.739Z,27.58
2018-12-06T06:27:51.089Z,24.67
2018-12-06T06:28:55.852Z,29.25
2018-12-06T06:30:00.720Z,27.37
2018-12-06T06:32:14.690Z,26.80
2018-12-06T06:33:19.517Z,23.62
2018-12-06T06:34:23.983Z,25.20
2018-12-06T06:35:28.388Z,28.47
2018-12-06T06:36:33.061Z,27.32
2018-12-06T06:37:38.022Z,27.62
2018-12-06T06:38:42.558Z,31.27
2018-12-06T06:39:46.828Z,27.80
2018-12-06T06:40:50.985Z,25.05
2018-12-06T06:41:55.257Z,24.60
2018-12-06T06:43:00.181Z,28.95
2018-12-06T06:44:04.623Z,32.65
2018-12-06T06:45:08.924Z,22.17
2018-12-06T06:46:13.321Z,27.77
2018-12-06T06:47:17.621Z,34.18
2018-12-06T06:48:22.033Z,25.72
2018-12-06T06:49:31.173Z,23.87
2018-12-06T06:50:35.476Z,24.05
2018-12-06T06:51:39.628Z,30.75
2018-12-06T06:52:44.162Z,34.30
2018-12-06T06:53:48.447Z,30.77
2018-12-06T06:54:52.599Z,34.40
2018-12-06T06:55:59.926Z,32.42
2018-12-06T06:57:04.124Z,28.52
2018-12-06T06:58:08.434Z,29.57
2018-12-06T06:59:13.625Z,39.23
2018-12-06T07:00:18.984Z,33.15
2018-12-06T07:01:23.246Z,32.67
2018-12-06T07:02:28.054Z,31.30
2018-12-06T07:03:32.512Z,31.87
2018-12-06T07:04:36.709Z,37.58
2018-12-06T07:05:40.933Z,37.58
2018-12-06T07:06:45.272Z,30.40
2018-12-06T07:07:49.713Z,30.88
2018-12-06T07:08:54.153Z,25.12
2018-12-06T07:09:58.407Z,32.58
2018-12-06T07:11:02.795Z,33.75
2018-12-06T07:12:07.094Z,27.35
2018-12-06T07:13:11.407Z,27.15
2018-12-06T07:14:15.692Z,30.52
2018-12-06T07:15:20.041Z,29.50
2018-12-06T07:16:24.330Z,30.57
2018-12-06T07:17:28.584Z,27.45
2018-12-06T07:18:32.956Z,29.98
2018-12-06T07:19:37.230Z,25.70
2018-12-06T07:20:41.577Z,28.65
2018-12-06T07:21:45.707Z,35.38
2018-12-06T07:22:50.078Z,35.23
2018-12-06T07:23:54.486Z,28.05
2018-12-06T07:24:58.761Z,24.82
2018-12-06T07:26:02.922Z,32.17
2018-12-06T07:27:07.186Z,33.42
2018-12-06T07:28:11.497Z,31.17
2018-12-06T07:29:15.782Z,34.95
2018-12-06T07:30:20.229Z,27.10
2018-12-06T07:31:24.542Z,30.30
2018-12-06T07:32:29.047Z,33.90
2018-12-06T07:33:33.196Z,34.70
2018-12-06T07:34:37.441Z,23.05
2018-12-06T07:35:41.649Z,25.45
2018-12-06T07:36:45.965Z,31.05
2018-12-06T07:37:50.237Z,25.75
2018-12-06T07:38:54.468Z,26.15
2018-12-06T07:39:58.641Z,22.55
2018-12-06T07:41:02.820Z,31.70
2018-12-06T07:42:08.240Z,24.67
2018-12-06T07:43:12.331Z,26.87
2018-12-06T07:44:16.542Z,23.02
2018-12-06T07:45:20.908Z,23.65
2018-12-06T07:46:25.185Z,22.00
2018-12-06T07:47:29.265Z,20.70
2018-12-06T07:48:33.496Z,19.02
2018-12-06T07:49:37.754Z,21.60
2018-12-06T07:50:42.035Z,21.87
2018-12-06T07:51:46.236Z,17.50
2018-12-06T07:52:50.492Z,23.30
2018-12-06T07:53:54.658Z,21.02
2018-12-06T07:54:59.762Z,24.37
2018-12-06T07:56:04.055Z,20.70
2018-12-06T07:57:13.843Z,18.92
2018-12-06T07:58:18.561Z,19.02
2018-12-06T07:59:22.752Z,20.45
2018-12-06T08:00:27.984Z,22.02
2018-12-06T08:01:32.157Z,23.42
2018-12-06T08:02:36.438Z,24.82
2018-12-06T08:03:43.539Z,20.08
2018-12-06T08:04:50.602Z,19.40
2018-12-06T08:05:54.766Z,22.10
2018-12-06T08:06:58.863Z,23.75
2018-12-06T08:08:03.055Z,23.55
2018-12-06T08:09:09.609Z,25.65
2018-12-06T08:10:13.757Z,19.80
2018-12-06T08:11:17.919Z,24.72
2018-12-06T08:12:21.986Z,22.45
2018-12-06T08:13:26.257Z,31.30
2018-12-06T08:14:30.380Z,27.30
2018-12-06T08:15:34.496Z,32.65
2018-12-06T08:16:38.602Z,28.70
2018-12-06T08:17:42.595Z,28.30
2018-12-06T08:18:46.985Z,21.57
2018-12-06T08:19:51.057Z,28.30
2018-12-06T08:20:55.143Z,29.67
2018-12-06T08:21:59.262Z,32.20
2018-12-06T08:23:03.313Z,23.52
2018-12-06T08:24:07.442Z,30.05
2018-12-06T08:25:11.642Z,30.27
2018-12-06T08:26:15.754Z,25.88
2018-12-06T08:27:20.097Z,26.85
2018-12-06T08:28:24.333Z,31.05
2018-12-06T08:29:28.489Z,25.37
2018-12-06T08:30:32.629Z,27.40
2018-12-06T08:31:36.809Z,30.10
2018-12-06T08:32:40.928Z,20.45
2018-12-06T08:33:45.058Z,28.30
2018-12-06T08:34:49.339Z,32.73
2018-12-06T08:35:53.514Z,28.45
2018-12-06T08:36:57.655Z,23.05
2018-12-06T08:38:02.002Z,22.52
2018-12-06T08:39:07.188Z,24.23
2018-12-06T08:40:11.454Z,24.72
2018-12-06T08:41:15.618Z,29.18
2018-12-06T08:42:24.733Z,25.70
2018-12-06T08:43:28.904Z,24.07
2018-12-06T08:44:33.075Z,26.48
2018-12-06T08:45:37.282Z,25.37
2018-12-06T08:46:41.459Z,23.40
2018-12-06T08:47:45.591Z,28.92
2018-12-06T08:48:49.821Z,28.65
2018-12-06T08:49:54.082Z,29.40
2018-12-06T08:50:58.461Z,27.50
2018-12-06T08:52:02.681Z,28.45
2018-12-06T08:53:12.236Z,27.37
2018-12-06T08:54:16.574Z,28.80
2018-12-06T08:55:20.773Z,32.17
2018-12-06T08:56:24.952Z,30.48
2018-12-06T08:57:29.306Z,30.52
2018-12-06T08:58:33.992Z,24.82
2018-12-06T08:59:38.322Z,31.75
2018-12-06T09:00:43.685Z,35.88
2018-12-06T09:01:47.942Z,36.93
2018-12-06T09:02:52.408Z,36.65
2018-12-06T09:03:56.848Z,34.60
2018-12-06T09:05:01.507Z,36.83
2018-12-06T09:06:05.709Z,30.82
2018-12-06T09:07:10.001Z,37.42
2018-12-06T09:08:14.603Z,27.80
2018-12-06T09:09:18.946Z,32.45
2018-12-06T09:10:23.263Z,34.60
2018-12-06T09:11:28.046Z,32.55
2018-12-06T09:12:32.483Z,28.12
2018-12-06T09:13:36.758Z,32.58
2018-12-06T09:14:41.110Z,30.27
2018-12-06T09:15:45.354Z,31.97
2018-12-06T09:16:49.686Z,26.45
2018-12-06T09:17:54.059Z,31.40
2018-12-06T09:18:58.497Z,34.18
2018-12-06T09:20:02.705Z,34.30
2018-12-06T09:21:07.104Z,31.17
2018-12-06T09:22:11.542Z,34.20
2018-12-06T09:23:15.882Z,38.28
2018-12-06T09:24:20.252Z,32.48
2018-12-06T09:25:24.493Z,34.58
2018-12-06T09:26:28.949Z,31.25
2018-12-06T09:27:33.354Z,32.50
2018-12-06T09:28:41.702Z,35.75
2018-12-06T09:29:52.605Z,33.75
2018-12-06T09:31:00.977Z,30.52
2018-12-06T09:32:03.458Z,37.05
2018-12-06T09:33:07.785Z,36.10
2018-12-06T09:34:12.140Z,40.50
2018-12-06T09:35:16.542Z,35.38
2018-12-06T09:36:20.719Z,33.35
2018-12-06T09:37:25.030Z,33.55
2018-12-06T09:38:29.323Z,32.85
2018-12-06T09:39:33.686Z,41.68
2018-12-06T09:40:38.051Z,35.58
2018-12-06T09:41:42.514Z,36.38
2018-12-06T09:42:46.884Z,34.85
2018-12-06T09:43:52.198Z,33.58
2018-12-06T09:44:56.579Z,34.40
2018-12-06T09:46:01.078Z,33.78
2018-12-06T09:47:05.592Z,37.93
2018-12-06T09:48:10.007Z,37.42
2018-12-06T09:49:14.354Z,32.17
2018-12-06T09:50:18.583Z,35.00
2018-12-06T09:51:22.968Z,33.50
2018-12-06T09:52:27.346Z,37.30
2018-12-06T09:53:31.802Z,29.95
2018-12-06T09:54:36.312Z,27.65
2018-12-06T09:55:40.652Z,31.25
2018-12-06T09:56:45.109Z,26.07
2018-12-06T09:57:49.498Z,35.48
2018-12-06T09:58:53.742Z,29.00
2018-12-06T09:59:58.146Z,29.87
2018-12-06T10:01:02.351Z,32.23
2018-12-06T10:02:06.702Z,31.93
2018-12-06T10:03:11.128Z,26.68
2018-12-06T10:04:15.507Z,37.45
2018-12-06T10:05:25.225Z,27.65
2018-12-06T10:06:29.472Z,32.90
2018-12-06T10:07:34.181Z,28.50
2018-12-06T10:08:38.405Z,24.90
2018-12-06T10:09:42.792Z,29.55
2018-12-06T10:10:47.976Z,33.50
2018-12-06T10:11:52.215Z,35.40
2018-12-06T10:12:58.489Z,32.17
2018-12-06T10:14:03.138Z,38.10
2018-12-06T10:15:07.533Z,38.13
2018-12-06T10:16:11.751Z,40.95
2018-12-06T10:17:15.965Z,40.35
2018-12-06T10:18:20.319Z,43.15
2018-12-06T10:19:24.808Z,39.83
2018-12-06T10:20:29.112Z,35.85
2018-12-06T10:21:33.340Z,33.45
2018-12-06T10:22:37.934Z,31.23
2018-12-06T10:23:42.288Z,31.40
2018-12-06T10:24:46.577Z,34.10
2018-12-06T10:25:50.901Z,36.98
2018-12-06T10:26:55.208Z,35.83
2018-12-06T10:27:59.645Z,38.40
2018-12-06T10:29:03.977Z,32.80
2018-12-06T10:30:09.927Z,34.15
2018-12-06T10:31:14.301Z,32.80
2018-12-06T10:32:18.874Z,32.48
2018-12-06T10:33:23.420Z,27.25
2018-12-06T10:34:27.738Z,26.90
2018-12-06T10:35:32.125Z,31.42
2018-12-06T10:36:36.506Z,31.33
2018-12-06T10:37:40.845Z,26.65
2018-12-06T10:38:45.002Z,28.62
2018-12-06T10:39:50.603Z,32.83
2018-12-06T10:41:01.300Z,39.18
2018-12-06T10:42:06.406Z,28.75
2018-12-06T10:43:10.752Z,33.63
2018-12-06T10:44:35.389Z,33.20
2018-12-06T10:45:39.661Z,40.25
2018-12-06T10:46:43.881Z,33.48
2018-12-06T10:47:48.123Z,31.48
2018-12-06T10:48:52.469Z,32.93
2018-12-06T10:49:56.822Z,35.25
2018-12-06T10:51:11.927Z,41.73
2018-12-06T10:52:16.204Z,35.78
2018-12-06T10:53:20.582Z,35.60
2018-12-06T10:54:24.890Z,36.23
2018-12-06T10:55:29.161Z,43.80
2018-12-06T10:56:33.477Z,35.80
2018-12-06T10:57:37.843Z,35.38
2018-12-06T10:58:42.179Z,33.50
2018-12-06T10:59:46.606Z,39.00
2018-12-06T11:00:57.366Z,38.70
2018-12-06T11:02:03.926Z,36.20
2018-12-06T11:03:16.341Z,32.70
2018-12-06T11:04:23.120Z,38.23
2018-12-06T11:05:28.609Z,37.90
2018-12-06T11:06:32.898Z,35.73
2018-12-06T11:07:37.510Z,37.78
2018-12-06T11:08:42.057Z,41.68
2018-12-06T11:09:46.490Z,40.58
2018-12-06T11:10:50.883Z,44.25
2018-12-06T11:11:55.218Z,39.83
2018-12-06T11:12:59.454Z,45.63
2018-12-06T11:14:04.114Z,39.65
2018-12-06T11:15:08.913Z,46.95
2018-12-06T11:16:13.400Z,46.30
2018-12-06T11:17:17.740Z,39.18
2018-12-06T11:18:28.133Z,46.88
2018-12-06T11:19:32.430Z,42.53
2018-12-06T11:20:42.133Z,46.60
2018-12-06T11:21:46.462Z,44.75
2018-12-06T11:22:52.068Z,45.92
2018-12-06T11:23:56.424Z,47.33
2018-12-06T11:25:00.694Z,47.85
2018-12-06T11:26:04.997Z,44.23
2018-12-06T11:27:09.373Z,42.43
2018-12-06T11:28:13.642Z,40.92
2018-12-06T11:29:17.937Z,44.18
2018-12-06T11:30:23.057Z,43.10
2018-12-06T11:31:27.310Z,46.02
2018-12-06T11:32:31.608Z,49.30
2018-12-06T11:33:36.184Z,44.80
2018-12-06T11:34:40.583Z,47.17
2018-12-06T11:35:44.813Z,45.70
2018-12-06T11:36:49.178Z,41.70
2018-12-06T11:37:58.912Z,49.15
2018-12-06T11:39:03.615Z,45.48
2018-12-06T11:40:08.035Z,40.92
2018-12-06T11:41:12.401Z,48.48
2018-12-06T11:42:18.992Z,47.23
2018-12-06T11:43:23.647Z,42.60
2018-12-06T11:44:28.103Z,40.30
2018-12-06T11:45:32.369Z,44.80
2018-12-06T11:46:36.718Z,44.15
2018-12-06T11:47:41.069Z,49.15
2018-12-06T11:48:45.409Z,48.35
2018-12-06T11:49:49.842Z,49.48
2018-12-06T11:50:54.225Z,48.25
2018-12-06T11:51:58.636Z,48.35
2018-12-06T11:53:03.511Z,48.30
2018-12-06T11:54:07.980Z,48.08
2018-12-06T11:55:12.404Z,52.80
2018-12-06T11:56:16.851Z,47.60
2018-12-06T11:57:21.189Z,53.23
2018-12-06T11:58:25.510Z,51.95
2018-12-06T11:59:30.039Z,47.55
2018-12-06T12:00:34.532Z,49.23
2018-12-06T12:01:38.907Z,51.70
2018-12-06T12:02:43.190Z,49.70
2018-12-06T12:03:47.590Z,49.63
2018-12-06T12:04:52.042Z,46.08
2018-12-06T12:05:58.795Z,50.67
2018-12-06T12:07:02.697Z,51.50
2018-12-06T12:08:07.953Z,50.40
2018-12-06T12:09:12.179Z,45.20
2018-12-06T12:10:16.623Z,53.75
2018-12-06T12:11:26.017Z,44.10
2018-12-06T12:12:30.383Z,48.60
2018-12-06T12:13:34.657Z,53.23
2018-12-06T12:14:38.972Z,43.40
2018-12-06T12:15:43.184Z,46.90
2018-12-06T12:16:47.670Z,50.98
2018-12-06T12:17:52.058Z,52.65
2018-12-06T12:18:56.408Z,51.02
2018-12-06T12:20:00.877Z,52.83
2018-12-06T12:21:05.439Z,54.10
2018-12-06T12:22:10.159Z,46.70
2018-12-06T12:23:14.473Z,48.95
2018-12-06T12:24:18.904Z,49.90
2018-12-06T12:25:23.274Z,55.17
2018-12-06T12:26:27.591Z,58.05
2018-12-06T12:27:37.142Z,55.45
2018-12-06T12:28:41.431Z,48.55
2018-12-06T12:29:45.780Z,51.73
2018-12-06T12:30:50.093Z,54.65
2018-12-06T12:31:54.484Z,53.17
2018-12-06T12:32:58.893Z,53.35
2018-12-06T12:34:03.254Z,52.88
2018-12-06T12:35:07.878Z,49.38
2018-12-06T12:36:12.285Z,49.58
2018-12-06T12:37:16.581Z,52.08
2018-12-06T12:38:21.448Z,53.45
2018-12-06T12:39:25.891Z,55.25
2018-12-06T12:40:30.170Z,53.87
2018-12-06T12:41:34.374Z,52.85
2018-12-06T12:42:39.305Z,52.83
2018-12-06T12:43:44.028Z,50.83
2018-12-06T12:44:49.083Z,57.73
2018-12-06T12:45:53.417Z,52.45
2018-12-06T12:46:57.895Z,49.48
2018-12-06T12:48:02.175Z,53.48
2018-12-06T12:49:06.488Z,57.40
2018-12-06T12:50:10.855Z,52.53
2018-12-06T12:51:15.174Z,55.88
2018-12-06T12:52:20.806Z,53.45
2018-12-06T12:53:25.247Z,56.13
2018-12-06T12:54:29.846Z,48.55
2018-12-06T12:55:34.122Z,53.63
2018-12-06T12:56:38.494Z,49.45
2018-12-06T12:57:42.747Z,61.23
2018-12-06T12:58:47.592Z,59.98
2018-12-06T12:59:51.981Z,67.90
2018-12-06T13:00:56.471Z,54.23
2018-12-06T13:02:01.123Z,57.60
2018-12-06T13:03:05.465Z,45.30
2018-12-06T13:04:09.872Z,54.03
2018-12-06T13:05:14.184Z,48.90
2018-12-06T13:06:19.471Z,52.60
2018-12-06T13:07:23.844Z,50.98
2018-12-06T13:08:28.157Z,49.45
2018-12-06T13:09:32.561Z,49.40
2018-12-06T13:10:36.774Z,53.28
2018-12-06T13:11:41.066Z,55.98
2018-12-06T13:12:45.346Z,56.28
2018-12-06T13:13:50.540Z,64.80
2018-12-06T13:14:54.891Z,56.25
2018-12-06T13:15:59.305Z,53.23
2018-12-06T13:17:03.728Z,120.17
2018-12-06T13:18:08.292Z,139.30
2018-12-06T13:19:12.701Z,136.80
2018-12-06T13:20:17.222Z,120.70
2018-12-06T13:21:21.570Z,153.90
2018-12-06T13:22:25.883Z,199.77
2018-12-06T13:23:30.228Z,114.97
2018-12-06T13:24:34.596Z,116.57
2018-12-06T13:25:38.949Z,95.95
2018-12-06T13:26:44.454Z,66.67
2018-12-06T13:27:48.876Z,88.67
2018-12-06T13:28:53.098Z,139.72
2018-12-06T13:29:57.469Z,187.22
2018-12-06T13:31:01.694Z,213.85
2018-12-06T13:32:06.189Z,219.13
2018-12-06T13:33:10.645Z,107.92
2018-12-06T13:34:14.994Z,169.22
2018-12-06T13:35:19.277Z,141.43
2018-12-06T13:36:23.645Z,131.57
2018-12-06T13:37:28.092Z,275.30
2018-12-06T13:38:32.418Z,233.65
2018-12-06T13:39:36.945Z,256.30
2018-12-06T13:40:41.344Z,213.75
2018-12-06T13:41:45.676Z,199.10
2018-12-06T13:42:50.072Z,205.07
2018-12-06T13:43:54.422Z,280.07
2018-12-06T13:44:58.658Z,109.25
2018-12-06T13:46:03.159Z,232.75
2018-12-06T13:47:07.616Z,258.52
2018-12-06T13:48:11.855Z,130.35
2018-12-06T13:49:16.219Z,111.52
2018-12-06T13:50:20.540Z,111.40
2018-12-06T13:51:25.065Z,73.97
2018-12-06T13:52:29.463Z,115.08
2018-12-06T13:53:33.783Z,92.25
2018-12-06T13:54:42.075Z,60.88
2018-12-06T13:55:46.408Z,68.83